sensor_id;sensor_type;location;lat;lon;timestamp;temperature;humidity
70214;DHT22;60138;55.808;37.078;2023-04-25T00:01:42;11.08;41.31
70214;DHT22;60138;55.808;37.078;2023-04-25T00:04:08;11.02;41.19
70214;DHT22;60138;55.808;37.078;2023-04-25T00:06:34;10.99;41.42
70214;DHT22;60138;55.808;37.078;2023-04-25T00:09:00;10.99;41.44
70214;DHT22;60138;55.808;37.078;2023-04-25T00:11:26;10.96;41.64
70214;DHT22;60138;55.808;37.078;2023-04-25T00:13:51;10.93;42.51
70214;DHT22;60138;55.808;37.078;2023-04-25T00:16:17;10.90;41.28
70214;DHT22;60138;55.808;37.078;2023-04-25T00:18:43;10.81;41.81
70214;DHT22;60138;55.808;37.078;2023-04-25T00:21:08;10.72;42.40
70214;DHT22;60138;55.808;37.078;2023-04-25T00:23:34;10.65;42.23
70214;DHT22;60138;55.808;37.078;2023-04-25T00:26:00;10.58;42.00
70214;DHT22;60138;55.808;37.078;2023-04-25T00:28:26;10.51;42.68
70214;DHT22;60138;55.808;37.078;2023-04-25T00:30:52;10.43;43.79
70214;DHT22;60138;55.808;37.078;2023-04-25T00:33:17;10.35;42.88
70214;DHT22;60138;55.808;37.078;2023-04-25T00:35:43;10.26;42.90
70214;DHT22;60138;55.808;37.078;2023-04-25T00:38:10;10.21;42.74
70214;DHT22;60138;55.808;37.078;2023-04-25T00:40:36;10.15;42.81
70214;DHT22;60138;55.808;37.078;2023-04-25T00:43:01;10.10;43.51
70214;DHT22;60138;55.808;37.078;2023-04-25T00:45:28;10.07;44.15
70214;DHT22;60138;55.808;37.078;2023-04-25T00:47:54;10.07;43.54
70214;DHT22;60138;55.808;37.078;2023-04-25T00:50:20;10.06;42.92
70214;DHT22;60138;55.808;37.078;2023-04-25T00:52:46;10.08;43.45
70214;DHT22;60138;55.808;37.078;2023-04-25T00:55:12;10.10;43.65
70214;DHT22;60138;55.808;37.078;2023-04-25T00:57:38;10.08;43.65
70214;DHT22;60138;55.808;37.078;2023-04-25T01:00:05;10.03;43.76
70214;DHT22;60138;55.808;37.078;2023-04-25T01:02:32;9.96;44.38
70214;DHT22;60138;55.808;37.078;2023-04-25T01:04:59;9.90;43.54
70214;DHT22;60138;55.808;37.078;2023-04-25T01:07:25;9.81;43.95
70214;DHT22;60138;55.808;37.078;2023-04-25T01:09:54;9.74;43.69
70214;DHT22;60138;55.808;37.078;2023-04-25T01:12:19;9.69;44.21
70214;DHT22;60138;55.808;37.078;2023-04-25T01:14:46;9.63;44.08
70214;DHT22;60138;55.808;37.078;2023-04-25T01:17:12;9.54;44.20
70214;DHT22;60138;55.808;37.078;2023-04-25T01:19:38;9.49;44.14
70214;DHT22;60138;55.808;37.078;2023-04-25T01:22:04;9.44;44.63
70214;DHT22;60138;55.808;37.078;2023-04-25T01:24:34;9.38;45.21
70214;DHT22;60138;55.808;37.078;2023-04-25T01:27:00;9.35;45.09
70214;DHT22;60138;55.808;37.078;2023-04-25T01:29:27;9.33;45.18
70214;DHT22;60138;55.808;37.078;2023-04-25T01:31:53;9.29;44.86
70214;DHT22;60138;55.808;37.078;2023-04-25T01:34:20;9.26;45.10
70214;DHT22;60138;55.808;37.078;2023-04-25T01:36:49;9.23;45.54
70214;DHT22;60138;55.808;37.078;2023-04-25T01:39:15;9.22;46.83
70214;DHT22;60138;55.808;37.078;2023-04-25T01:41:45;9.21;45.50
70214;DHT22;60138;55.808;37.078;2023-04-25T01:44:11;9.22;45.48
70214;DHT22;60138;55.808;37.078;2023-04-25T01:46:37;9.21;45.53
70214;DHT22;60138;55.808;37.078;2023-04-25T01:49:04;9.21;45.60
70214;DHT22;60138;55.808;37.078;2023-04-25T01:51:30;9.20;45.70
70214;DHT22;60138;55.808;37.078;2023-04-25T01:53:56;9.22;45.61
70214;DHT22;60138;55.808;37.078;2023-04-25T01:56:22;9.23;46.14
70214;DHT22;60138;55.808;37.078;2023-04-25T01:58:48;9.24;46.41
70214;DHT22;60138;55.808;37.078;2023-04-25T02:01:29;9.25;46.52
70214;DHT22;60138;55.808;37.078;2023-04-25T02:04:11;9.26;46.61
70214;DHT22;60138;55.808;37.078;2023-04-25T02:06:39;9.29;46.73
70214;DHT22;60138;55.808;37.078;2023-04-25T02:09:06;9.34;46.55
70214;DHT22;60138;55.808;37.078;2023-04-25T02:11:32;9.39;46.44
70214;DHT22;60138;55.808;37.078;2023-04-25T02:14:18;9.45;46.26
70214;DHT22;60138;55.808;37.078;2023-04-25T02:16:58;9.52;46.90
70214;DHT22;60138;55.808;37.078;2023-04-25T02:19:24;9.55;46.57
70214;DHT22;60138;55.808;37.078;2023-04-25T02:21:50;9.59;46.82
70214;DHT22;60138;55.808;37.078;2023-04-25T02:24:16;9.64;46.53
70214;DHT22;60138;55.808;37.078;2023-04-25T02:26:41;9.67;46.86
70214;DHT22;60138;55.808;37.078;2023-04-25T02:29:09;9.70;46.67
70214;DHT22;60138;55.808;37.078;2023-04-25T02:31:34;9.72;46.80
70214;DHT22;60138;55.808;37.078;2023-04-25T02:34:00;9.76;46.64
70214;DHT22;60138;55.808;37.078;2023-04-25T02:36:27;9.77;46.72
70214;DHT22;60138;55.808;37.078;2023-04-25T02:38:53;9.80;46.80
70214;DHT22;60138;55.808;37.078;2023-04-25T02:41:20;9.84;46.59
70214;DHT22;60138;55.808;37.078;2023-04-25T02:43:47;9.89;46.62
70214;DHT22;60138;55.808;37.078;2023-04-25T02:46:13;9.93;46.54
70214;DHT22;60138;55.808;37.078;2023-04-25T02:48:39;9.98;46.71
70214;DHT22;60138;55.808;37.078;2023-04-25T02:51:05;10.00;46.75
70214;DHT22;60138;55.808;37.078;2023-04-25T02:53:31;10.04;47.09
70214;DHT22;60138;55.808;37.078;2023-04-25T02:55:57;10.06;46.99
70214;DHT22;60138;55.808;37.078;2023-04-25T02:58:22;10.11;47.10
70214;DHT22;60138;55.808;37.078;2023-04-25T03:00:51;10.14;47.09
70214;DHT22;60138;55.808;37.078;2023-04-25T03:03:17;10.19;46.86
70214;DHT22;60138;55.808;37.078;2023-04-25T03:05:43;10.19;47.09
70214;DHT22;60138;55.808;37.078;2023-04-25T03:08:09;10.18;47.49
70214;DHT22;60138;55.808;37.078;2023-04-25T03:10:37;10.22;46.48
70214;DHT22;60138;55.808;37.078;2023-04-25T03:13:05;10.24;46.29
70214;DHT22;60138;55.808;37.078;2023-04-25T03:15:31;10.26;46.27
70214;DHT22;60138;55.808;37.078;2023-04-25T03:17:57;10.28;46.30
70214;DHT22;60138;55.808;37.078;2023-04-25T03:20:23;10.29;47.28
70214;DHT22;60138;55.808;37.078;2023-04-25T03:22:49;10.38;46.70
70214;DHT22;60138;55.808;37.078;2023-04-25T03:25:14;10.46;46.65
70214;DHT22;60138;55.808;37.078;2023-04-25T03:27:41;10.57;46.83
70214;DHT22;60138;55.808;37.078;2023-04-25T03:30:08;10.64;46.93
70214;DHT22;60138;55.808;37.078;2023-04-25T03:32:35;10.68;46.90
70214;DHT22;60138;55.808;37.078;2023-04-25T03:35:00;10.73;48.87
70214;DHT22;60138;55.808;37.078;2023-04-25T03:37:31;10.74;48.02
70214;DHT22;60138;55.808;37.078;2023-04-25T03:39:57;10.79;49.40
70214;DHT22;60138;55.808;37.078;2023-04-25T03:42:26;10.82;47.14
70214;DHT22;60138;55.808;37.078;2023-04-25T03:44:52;10.87;46.89
70214;DHT22;60138;55.808;37.078;2023-04-25T03:47:19;11.00;46.92
70214;DHT22;60138;55.808;37.078;2023-04-25T03:49:45;11.12;47.09
70214;DHT22;60138;55.808;37.078;2023-04-25T03:52:11;11.23;46.35
70214;DHT22;60138;55.808;37.078;2023-04-25T03:54:39;11.29;45.42
70214;DHT22;60138;55.808;37.078;2023-04-25T03:57:15;11.62;44.61
70214;DHT22;60138;55.808;37.078;2023-04-25T03:59:42;12.02;43.71
70214;DHT22;60138;55.808;37.078;2023-04-25T04:02:10;12.47;41.97
70214;DHT22;60138;55.808;37.078;2023-04-25T04:04:36;12.76;42.22
70214;DHT22;60138;55.808;37.078;2023-04-25T04:07:02;13.01;41.78
70214;DHT22;60138;55.808;37.078;2023-04-25T04:09:31;13.15;41.83
70214;DHT22;60138;55.808;37.078;2023-04-25T04:11:59;13.34;40.92
70214;DHT22;60138;55.808;37.078;2023-04-25T04:14:25;13.47;41.84
70214;DHT22;60138;55.808;37.078;2023-04-25T04:16:51;13.40;41.72
70214;DHT22;60138;55.808;37.078;2023-04-25T04:19:17;13.32;42.32
70214;DHT22;60138;55.808;37.078;2023-04-25T04:21:50;13.26;42.79
70214;DHT22;60138;55.808;37.078;2023-04-25T04:24:16;13.18;43.29
70214;DHT22;60138;55.808;37.078;2023-04-25T04:26:52;13.12;43.12
70214;DHT22;60138;55.808;37.078;2023-04-25T04:29:50;13.08;43.45
70214;DHT22;60138;55.808;37.078;2023-04-25T04:32:24;13.10;43.26
70214;DHT22;60138;55.808;37.078;2023-04-25T04:34:51;13.15;42.62
70214;DHT22;60138;55.808;37.078;2023-04-25T04:37:18;13.18;42.36
70214;DHT22;60138;55.808;37.078;2023-04-25T04:39:44;13.20;43.45
70214;DHT22;60138;55.808;37.078;2023-04-25T04:42:33;13.23;43.17
70214;DHT22;60138;55.808;37.078;2023-04-25T04:45:22;13.30;43.75
70214;DHT22;60138;55.808;37.078;2023-04-25T04:48:07;13.35;43.10
70214;DHT22;60138;55.808;37.078;2023-04-25T04:50:33;13.41;43.32
70214;DHT22;60138;55.808;37.078;2023-04-25T04:53:17;13.45;42.87
70214;DHT22;60138;55.808;37.078;2023-04-25T04:55:55;13.45;42.70
70214;DHT22;60138;55.808;37.078;2023-04-25T04:58:28;13.49;42.44
70214;DHT22;60138;55.808;37.078;2023-04-25T05:01:21;13.60;43.63
70214;DHT22;60138;55.808;37.078;2023-04-25T05:03:56;13.79;44.41
70214;DHT22;60138;55.808;37.078;2023-04-25T05:06:54;14.07;44.50
70214;DHT22;60138;55.808;37.078;2023-04-25T05:09:39;14.24;42.70
70214;DHT22;60138;55.808;37.078;2023-04-25T05:12:11;14.35;42.96
70214;DHT22;60138;55.808;37.078;2023-04-25T05:14:57;14.50;42.52
70214;DHT22;60138;55.808;37.078;2023-04-25T05:17:41;14.65;44.42
70214;DHT22;60138;55.808;37.078;2023-04-25T05:20:27;14.79;44.58
70214;DHT22;60138;55.808;37.078;2023-04-25T05:23:12;14.92;43.21
70214;DHT22;60138;55.808;37.078;2023-04-25T05:25:51;15.03;42.52
70214;DHT22;60138;55.808;37.078;2023-04-25T05:28:37;15.12;42.01
70214;DHT22;60138;55.808;37.078;2023-04-25T05:31:32;15.19;41.96
70214;DHT22;60138;55.808;37.078;2023-04-25T05:34:07;15.25;40.04
70214;DHT22;60138;55.808;37.078;2023-04-25T05:36:43;15.29;40.18
70214;DHT22;60138;55.808;37.078;2023-04-25T05:39:09;15.29;40.88
70214;DHT22;60138;55.808;37.078;2023-04-25T05:41:53;15.36;40.41
70214;DHT22;60138;55.808;37.078;2023-04-25T05:44:51;15.42;39.67
70214;DHT22;60138;55.808;37.078;2023-04-25T05:47:35;15.48;39.93
70214;DHT22;60138;55.808;37.078;2023-04-25T05:50:08;15.52;39.81
70214;DHT22;60138;55.808;37.078;2023-04-25T05:52:48;15.62;39.83
70214;DHT22;60138;55.808;37.078;2023-04-25T05:55:37;15.75;40.11
70214;DHT22;60138;55.808;37.078;2023-04-25T05:58:17;15.83;38.64
70214;DHT22;60138;55.808;37.078;2023-04-25T06:00:43;15.90;38.14
70214;DHT22;60138;55.808;37.078;2023-04-25T06:03:09;16.04;37.90
70214;DHT22;60138;55.808;37.078;2023-04-25T06:05:34;16.20;37.32
70214;DHT22;60138;55.808;37.078;2023-04-25T06:08:00;16.39;36.62
70214;DHT22;60138;55.808;37.078;2023-04-25T06:10:26;16.50;36.18
70214;DHT22;60138;55.808;37.078;2023-04-25T06:12:52;16.61;36.30
70214;DHT22;60138;55.808;37.078;2023-04-25T06:15:20;16.64;36.28
70214;DHT22;60138;55.808;37.078;2023-04-25T06:17:46;16.65;35.92
70214;DHT22;60138;55.808;37.078;2023-04-25T06:20:12;16.59;35.50
70214;DHT22;60138;55.808;37.078;2023-04-25T06:22:39;16.49;35.70
70214;DHT22;60138;55.808;37.078;2023-04-25T06:25:05;16.42;35.50
70214;DHT22;60138;55.808;37.078;2023-04-25T06:27:32;16.41;36.46
70214;DHT22;60138;55.808;37.078;2023-04-25T06:29:58;16.39;36.50
70214;DHT22;60138;55.808;37.078;2023-04-25T06:32:24;16.36;36.72
70214;DHT22;60138;55.808;37.078;2023-04-25T06:34:50;16.32;36.59
70214;DHT22;60138;55.808;37.078;2023-04-25T06:37:16;16.35;36.45
70214;DHT22;60138;55.808;37.078;2023-04-25T06:39:41;16.40;36.36
70214;DHT22;60138;55.808;37.078;2023-04-25T06:42:07;16.41;35.85
70214;DHT22;60138;55.808;37.078;2023-04-25T06:44:51;16.44;36.85
70214;DHT22;60138;55.808;37.078;2023-04-25T06:47:18;16.52;37.22
70214;DHT22;60138;55.808;37.078;2023-04-25T06:49:44;16.62;37.62
70214;DHT22;60138;55.808;37.078;2023-04-25T06:52:10;16.63;37.72
70214;DHT22;60138;55.808;37.078;2023-04-25T06:54:37;16.65;37.07
70214;DHT22;60138;55.808;37.078;2023-04-25T06:57:15;16.66;37.43
70214;DHT22;60138;55.808;37.078;2023-04-25T06:59:42;16.74;37.40
70214;DHT22;60138;55.808;37.078;2023-04-25T07:02:07;16.77;37.34
70214;DHT22;60138;55.808;37.078;2023-04-25T07:04:33;16.78;37.30
70214;DHT22;60138;55.808;37.078;2023-04-25T07:07:01;16.85;36.74
70214;DHT22;60138;55.808;37.078;2023-04-25T07:09:33;16.87;36.37
70214;DHT22;60138;55.808;37.078;2023-04-25T07:12:00;16.84;36.32
70214;DHT22;60138;55.808;37.078;2023-04-25T07:14:26;16.86;36.53
70214;DHT22;60138;55.808;37.078;2023-04-25T07:16:52;16.87;36.27
70214;DHT22;60138;55.808;37.078;2023-04-25T07:19:18;16.90;36.27
70214;DHT22;60138;55.808;37.078;2023-04-25T07:21:44;17.05;35.66
70214;DHT22;60138;55.808;37.078;2023-04-25T07:24:11;17.14;35.18
70214;DHT22;60138;55.808;37.078;2023-04-25T07:26:41;17.11;34.70
70214;DHT22;60138;55.808;37.078;2023-04-25T07:29:41;17.05;35.23
70214;DHT22;60138;55.808;37.078;2023-04-25T07:32:08;17.04;35.38
70214;DHT22;60138;55.808;37.078;2023-04-25T07:34:34;17.06;35.22
70214;DHT22;60138;55.808;37.078;2023-04-25T07:37:00;17.13;35.34
70214;DHT22;60138;55.808;37.078;2023-04-25T07:39:29;17.14;35.44
70214;DHT22;60138;55.808;37.078;2023-04-25T07:41:55;17.18;35.08
70214;DHT22;60138;55.808;37.078;2023-04-25T07:44:24;17.29;34.71
70214;DHT22;60138;55.808;37.078;2023-04-25T07:46:50;17.31;34.44
70214;DHT22;60138;55.808;37.078;2023-04-25T07:49:16;17.32;34.84
70214;DHT22;60138;55.808;37.078;2023-04-25T07:51:43;17.39;34.08
70214;DHT22;60138;55.808;37.078;2023-04-25T07:54:15;17.47;33.60
70214;DHT22;60138;55.808;37.078;2023-04-25T07:56:45;17.54;33.84
70214;DHT22;60138;55.808;37.078;2023-04-25T07:59:12;17.66;34.59
70214;DHT22;60138;55.808;37.078;2023-04-25T08:01:39;17.80;33.27
70214;DHT22;60138;55.808;37.078;2023-04-25T08:04:06;17.88;33.42
70214;DHT22;60138;55.808;37.078;2023-04-25T08:06:52;18.00;32.60
70214;DHT22;60138;55.808;37.078;2023-04-25T08:09:23;18.13;32.73
70214;DHT22;60138;55.808;37.078;2023-04-25T08:11:49;18.23;32.76
70214;DHT22;60138;55.808;37.078;2023-04-25T08:14:16;18.29;32.80
70214;DHT22;60138;55.808;37.078;2023-04-25T08:16:43;18.46;32.51
70214;DHT22;60138;55.808;37.078;2023-04-25T08:19:10;18.63;32.48
70214;DHT22;60138;55.808;37.078;2023-04-25T08:21:36;18.72;32.14
70214;DHT22;60138;55.808;37.078;2023-04-25T08:24:05;18.80;32.38
70214;DHT22;60138;55.808;37.078;2023-04-25T08:26:35;18.83;31.92
70214;DHT22;60138;55.808;37.078;2023-04-25T08:29:01;18.86;32.09
70214;DHT22;60138;55.808;37.078;2023-04-25T08:31:27;19.00;31.44
70214;DHT22;60138;55.808;37.078;2023-04-25T08:33:59;19.11;32.11
70214;DHT22;60138;55.808;37.078;2023-04-25T08:36:38;19.29;32.19
70214;DHT22;60138;55.808;37.078;2023-04-25T08:39:06;19.53;31.00
70214;DHT22;60138;55.808;37.078;2023-04-25T08:41:37;19.62;30.80
70214;DHT22;60138;55.808;37.078;2023-04-25T08:44:10;19.66;31.07
70214;DHT22;60138;55.808;37.078;2023-04-25T08:46:40;19.67;30.96
70214;DHT22;60138;55.808;37.078;2023-04-25T08:49:22;19.66;30.91
70214;DHT22;60138;55.808;37.078;2023-04-25T08:51:49;19.67;30.87
70214;DHT22;60138;55.808;37.078;2023-04-25T08:54:19;19.68;30.64
70214;DHT22;60138;55.808;37.078;2023-04-25T08:56:47;19.73;30.66
70214;DHT22;60138;55.808;37.078;2023-04-25T08:59:13;19.77;30.33
70214;DHT22;60138;55.808;37.078;2023-04-25T09:01:40;19.75;30.75
70214;DHT22;60138;55.808;37.078;2023-04-25T09:04:06;19.69;30.42
70214;DHT22;60138;55.808;37.078;2023-04-25T09:06:33;19.63;30.46
70214;DHT22;60138;55.808;37.078;2023-04-25T09:09:07;19.58;30.40
70214;DHT22;60138;55.808;37.078;2023-04-25T09:11:35;19.52;31.29
70214;DHT22;60138;55.808;37.078;2023-04-25T09:14:17;19.43;30.77
70214;DHT22;60138;55.808;37.078;2023-04-25T09:17:00;19.39;30.91
70214;DHT22;60138;55.808;37.078;2023-04-25T09:19:41;19.38;31.37
70214;DHT22;60138;55.808;37.078;2023-04-25T09:22:15;19.39;31.22
70214;DHT22;60138;55.808;37.078;2023-04-25T09:24:44;19.42;31.37
70214;DHT22;60138;55.808;37.078;2023-04-25T09:27:12;19.47;31.48
70214;DHT22;60138;55.808;37.078;2023-04-25T09:29:40;19.63;31.89
70214;DHT22;60138;55.808;37.078;2023-04-25T09:34:43;20.26;31.68
70214;DHT22;60138;55.808;37.078;2023-04-25T09:37:11;20.66;31.27
70214;DHT22;60138;55.808;37.078;2023-04-25T09:39:57;21.04;30.64
70214;DHT22;60138;55.808;37.078;2023-04-25T09:42:28;21.35;31.09
70214;DHT22;60138;55.808;37.078;2023-04-25T09:44:55;21.53;29.93
70214;DHT22;60138;55.808;37.078;2023-04-25T09:47:23;21.60;30.42
70214;DHT22;60138;55.808;37.078;2023-04-25T09:49:50;21.61;30.20
70214;DHT22;60138;55.808;37.078;2023-04-25T09:52:18;21.55;29.51
70214;DHT22;60138;55.808;37.078;2023-04-25T09:55:06;21.45;29.71
70214;DHT22;60138;55.808;37.078;2023-04-25T09:57:33;21.42;29.97
70214;DHT22;60138;55.808;37.078;2023-04-25T10:00:01;21.40;29.78
70214;DHT22;60138;55.808;37.078;2023-04-25T10:02:42;21.42;29.72
70214;DHT22;60138;55.808;37.078;2023-04-25T10:05:14;21.50;29.44
70214;DHT22;60138;55.808;37.078;2023-04-25T10:07:41;21.58;29.35
70214;DHT22;60138;55.808;37.078;2023-04-25T10:10:14;21.66;29.48
70214;DHT22;60138;55.808;37.078;2023-04-25T10:12:40;21.73;29.09
70214;DHT22;60138;55.808;37.078;2023-04-25T10:15:08;21.83;28.87
70214;DHT22;60138;55.808;37.078;2023-04-25T10:17:35;21.88;28.01
70214;DHT22;60138;55.808;37.078;2023-04-25T10:20:06;21.79;28.45
70214;DHT22;60138;55.808;37.078;2023-04-25T10:22:34;21.75;28.39
70214;DHT22;60138;55.808;37.078;2023-04-25T10:25:01;21.75;28.93
70214;DHT22;60138;55.808;37.078;2023-04-25T10:27:29;21.84;29.00
70214;DHT22;60138;55.808;37.078;2023-04-25T10:32:33;21.98;28.63
70214;DHT22;60138;55.808;37.078;2023-04-25T10:35:10;21.99;28.09
70214;DHT22;60138;55.808;37.078;2023-04-25T10:37:36;21.91;28.27
70214;DHT22;60138;55.808;37.078;2023-04-25T10:40:09;21.82;27.62
70214;DHT22;60138;55.808;37.078;2023-04-25T10:42:35;21.75;27.84
70214;DHT22;60138;55.808;37.078;2023-04-25T10:45:03;21.69;28.42
70214;DHT22;60138;55.808;37.078;2023-04-25T10:47:36;21.58;27.59
70214;DHT22;60138;55.808;37.078;2023-04-25T10:50:07;21.65;27.23
70214;DHT22;60138;55.808;37.078;2023-04-25T10:52:33;21.66;27.29
70214;DHT22;60138;55.808;37.078;2023-04-25T10:55:03;21.64;26.28
70214;DHT22;60138;55.808;37.078;2023-04-25T11:00:11;21.77;27.26
70214;DHT22;60138;55.808;37.078;2023-04-25T11:02:43;21.87;27.63
70214;DHT22;60138;55.808;37.078;2023-04-25T11:05:09;21.95;27.29
70214;DHT22;60138;55.808;37.078;2023-04-25T11:07:53;21.98;26.72
70214;DHT22;60138;55.808;37.078;2023-04-25T11:10:20;22.07;27.74
70214;DHT22;60138;55.808;37.078;2023-04-25T11:12:46;22.20;26.04
70214;DHT22;60138;55.808;37.078;2023-04-25T11:15:12;22.26;26.54
70214;DHT22;60138;55.808;37.078;2023-04-25T11:17:39;22.35;27.42
70214;DHT22;60138;55.808;37.078;2023-04-25T11:20:05;22.42;27.29
70214;DHT22;60138;55.808;37.078;2023-04-25T11:22:31;22.42;27.32
70214;DHT22;60138;55.808;37.078;2023-04-25T11:24:57;22.48;27.21
70214;DHT22;60138;55.808;37.078;2023-04-25T11:27:23;22.55;27.29
70214;DHT22;60138;55.808;37.078;2023-04-25T11:29:49;22.58;26.95
70214;DHT22;60138;55.808;37.078;2023-04-25T11:32:15;22.58;26.65
70214;DHT22;60138;55.808;37.078;2023-04-25T11:34:43;22.62;27.94
70214;DHT22;60138;55.808;37.078;2023-04-25T11:37:10;22.70;26.99
70214;DHT22;60138;55.808;37.078;2023-04-25T11:39:35;22.88;27.10
70214;DHT22;60138;55.808;37.078;2023-04-25T11:42:03;23.25;27.98
70214;DHT22;60138;55.808;37.078;2023-04-25T11:44:29;23.76;25.89
70214;DHT22;60138;55.808;37.078;2023-04-25T11:46:55;24.32;24.54
70214;DHT22;60138;55.808;37.078;2023-04-25T11:49:21;24.82;24.85
70214;DHT22;60138;55.808;37.078;2023-04-25T11:51:48;25.42;21.96
70214;DHT22;60138;55.808;37.078;2023-04-25T11:54:14;25.15;25.14
70214;DHT22;60138;55.808;37.078;2023-04-25T11:56:46;24.89;23.43
70214;DHT22;60138;55.808;37.078;2023-04-25T11:59:12;25.19;23.56
70214;DHT22;60138;55.808;37.078;2023-04-25T12:01:47;25.71;22.43
70214;DHT22;60138;55.808;37.078;2023-04-25T12:04:19;26.22;22.81
70214;DHT22;60138;55.808;37.078;2023-04-25T12:06:47;26.64;22.78
70214;DHT22;60138;55.808;37.078;2023-04-25T12:09:13;27.04;23.34
70214;DHT22;60138;55.808;37.078;2023-04-25T12:11:46;27.60;20.45
70214;DHT22;60138;55.808;37.078;2023-04-25T12:14:20;27.99;24.82
70214;DHT22;60138;55.808;37.078;2023-04-25T12:16:46;27.76;23.57
70214;DHT22;60138;55.808;37.078;2023-04-25T12:19:16;28.01;23.46
70214;DHT22;60138;55.808;37.078;2023-04-25T12:21:42;27.78;20.97
70214;DHT22;60138;55.808;37.078;2023-04-25T12:24:10;28.06;19.76
70214;DHT22;60138;55.808;37.078;2023-04-25T12:26:52;28.21;19.86
70214;DHT22;60138;55.808;37.078;2023-04-25T12:29:25;28.44;18.75
70214;DHT22;60138;55.808;37.078;2023-04-25T12:31:53;28.71;16.62
70214;DHT22;60138;55.808;37.078;2023-04-25T12:34:22;29.20;20.05
70214;DHT22;60138;55.808;37.078;2023-04-25T12:36:49;29.17;17.85
70214;DHT22;60138;55.808;37.078;2023-04-25T12:39:20;29.29;20.52
70214;DHT22;60138;55.808;37.078;2023-04-25T12:41:46;29.17;21.00
70214;DHT22;60138;55.808;37.078;2023-04-25T12:44:12;29.52;20.95
70214;DHT22;60138;55.808;37.078;2023-04-25T12:46:39;30.62;20.28
70214;DHT22;60138;55.808;37.078;2023-04-25T12:49:05;30.74;19.16
70214;DHT22;60138;55.808;37.078;2023-04-25T12:51:31;30.69;19.06
70214;DHT22;60138;55.808;37.078;2023-04-25T12:53:56;30.85;18.78
70214;DHT22;60138;55.808;37.078;2023-04-25T12:56:22;30.92;17.77
70214;DHT22;60138;55.808;37.078;2023-04-25T12:58:48;30.50;22.14
70214;DHT22;60138;55.808;37.078;2023-04-25T13:01:14;29.56;19.16
70214;DHT22;60138;55.808;37.078;2023-04-25T13:03:40;29.35;20.60
70214;DHT22;60138;55.808;37.078;2023-04-25T13:06:07;29.61;20.21
70214;DHT22;60138;55.808;37.078;2023-04-25T13:08:33;30.23;20.62
70214;DHT22;60138;55.808;37.078;2023-04-25T13:10:58;31.04;20.47
70214;DHT22;60138;55.808;37.078;2023-04-25T13:13:24;31.82;18.41
70214;DHT22;60138;55.808;37.078;2023-04-25T13:15:50;31.74;19.33
70214;DHT22;60138;55.808;37.078;2023-04-25T13:18:16;31.08;18.67
70214;DHT22;60138;55.808;37.078;2023-04-25T13:20:41;30.20;18.18
70214;DHT22;60138;55.808;37.078;2023-04-25T13:23:07;29.26;18.54
70214;DHT22;60138;55.808;37.078;2023-04-25T13:25:33;28.57;20.03
70214;DHT22;60138;55.808;37.078;2023-04-25T13:27:58;28.06;20.63
70214;DHT22;60138;55.808;37.078;2023-04-25T13:30:24;27.65;20.28
70214;DHT22;60138;55.808;37.078;2023-04-25T13:32:50;27.50;20.79
70214;DHT22;60138;55.808;37.078;2023-04-25T13:35:17;27.76;20.60
70214;DHT22;60138;55.808;37.078;2023-04-25T13:37:42;28.11;21.02
70214;DHT22;60138;55.808;37.078;2023-04-25T13:40:10;28.42;20.12
70214;DHT22;60138;55.808;37.078;2023-04-25T13:42:37;28.93;20.54
70214;DHT22;60138;55.808;37.078;2023-04-25T13:45:03;29.34;20.29
70214;DHT22;60138;55.808;37.078;2023-04-25T13:47:34;29.61;20.79
70214;DHT22;60138;55.808;37.078;2023-04-25T13:49:59;29.91;19.70
70214;DHT22;60138;55.808;37.078;2023-04-25T13:52:25;30.27;20.18
70214;DHT22;60138;55.808;37.078;2023-04-25T13:54:51;30.70;17.40
70214;DHT22;60138;55.808;37.078;2023-04-25T13:57:17;30.96;18.43
70214;DHT22;60138;55.808;37.078;2023-04-25T13:59:43;31.18;18.42
70214;DHT22;60138;55.808;37.078;2023-04-25T14:02:09;31.52;19.48
70214;DHT22;60138;55.808;37.078;2023-04-25T14:04:35;32.14;18.86
70214;DHT22;60138;55.808;37.078;2023-04-25T14:07:01;33.01;19.98
70214;DHT22;60138;55.808;37.078;2023-04-25T14:09:28;33.87;17.93
70214;DHT22;60138;55.808;37.078;2023-04-25T14:11:54;34.46;17.61
70214;DHT22;60138;55.808;37.078;2023-04-25T14:14:21;34.84;17.63
70214;DHT22;60138;55.808;37.078;2023-04-25T14:16:47;35.14;16.81
70214;DHT22;60138;55.808;37.078;2023-04-25T14:19:13;35.12;16.38
70214;DHT22;60138;55.808;37.078;2023-04-25T14:21:38;33.86;15.19
70214;DHT22;60138;55.808;37.078;2023-04-25T14:24:04;32.48;16.74
70214;DHT22;60138;55.808;37.078;2023-04-25T14:26:30;31.56;17.22
70214;DHT22;60138;55.808;37.078;2023-04-25T14:28:56;30.55;17.46
70214;DHT22;60138;55.808;37.078;2023-04-25T14:31:21;29.66;17.84
70214;DHT22;60138;55.808;37.078;2023-04-25T14:33:47;28.63;18.73
70214;DHT22;60138;55.808;37.078;2023-04-25T14:36:13;28.11;18.60
70214;DHT22;60138;55.808;37.078;2023-04-25T14:38:39;28.45;19.67
70214;DHT22;60138;55.808;37.078;2023-04-25T14:41:04;28.95;18.45
70214;DHT22;60138;55.808;37.078;2023-04-25T14:43:31;28.92;18.52
70214;DHT22;60138;55.808;37.078;2023-04-25T14:45:56;28.43;18.93
70214;DHT22;60138;55.808;37.078;2023-04-25T14:48:22;27.91;19.12
70214;DHT22;60138;55.808;37.078;2023-04-25T14:50:48;27.45;19.32
70214;DHT22;60138;55.808;37.078;2023-04-25T14:53:14;27.26;19.81
70214;DHT22;60138;55.808;37.078;2023-04-25T14:55:40;27.01;20.18
70214;DHT22;60138;55.808;37.078;2023-04-25T14:58:06;26.90;20.02
70214;DHT22;60138;55.808;37.078;2023-04-25T15:00:31;26.78;20.24
70214;DHT22;60138;55.808;37.078;2023-04-25T15:02:58;26.75;20.35
70214;DHT22;60138;55.808;37.078;2023-04-25T15:05:24;26.58;20.84
70214;DHT22;60138;55.808;37.078;2023-04-25T15:07:49;26.38;21.00
70214;DHT22;60138;55.808;37.078;2023-04-25T15:10:17;26.35;20.52
70214;DHT22;60138;55.808;37.078;2023-04-25T15:12:43;26.18;20.83
70214;DHT22;60138;55.808;37.078;2023-04-25T15:15:10;26.06;21.22
70214;DHT22;60138;55.808;37.078;2023-04-25T15:17:36;25.92;21.05
70214;DHT22;60138;55.808;37.078;2023-04-25T15:20:02;25.69;21.44
70214;DHT22;60138;55.808;37.078;2023-04-25T15:22:29;25.50;21.60
70214;DHT22;60138;55.808;37.078;2023-04-25T15:24:54;25.28;21.09
70214;DHT22;60138;55.808;37.078;2023-04-25T15:27:20;25.09;21.18
70214;DHT22;60138;55.808;37.078;2023-04-25T15:29:46;24.92;21.51
70214;DHT22;60138;55.808;37.078;2023-04-25T15:32:11;24.72;21.86
70214;DHT22;60138;55.808;37.078;2023-04-25T15:34:37;24.50;22.14
70214;DHT22;60138;55.808;37.078;2023-04-25T15:37:03;24.34;22.47